ADDS TAF Data INFO
IDs: Format: Raw Decoded Include METARs

Data at: 1116 UTC 17 Jul 2018

KPIE 170529Z 1706/1806 VRB03KT P6SM FEW025 SCT250
  FM171300 19006KT P6SM VCSH SCT025 BKN250
  FM171600 23010KT P6SM VCTS SCT035CB BKN060
  FM172100 25008KT P6SM SCT040 SCT250
  FM180200 VRB04KT P6SM FEW025 SCT250